Rechercher aéroport 
image banner adimage banner ad
image banner ad

EKVG - Vagar

Situé à All Faeroe Islands, Faroe Islands

ICAO - EKVG, IATA - FAE

Données fournies par Airmate  

Information générale

Coordonnées: N62°3'49" W7°16'38"
Élévation : 280 feet MSL.
Variation magnétique : -6.8° East
Voir autres Aéroports à (unassigned)

Données opérationnelles

Accessible au public
Heure actuelle UTC:
Heure actuelle locale:
Météo
METAR: EKVG 182150Z AUTO VRB01KT 9999 NCD 01/M00 Q0994
TAF: TAF EKVG 181420Z 1815/1821 35005KT 9999 SCT020 BKN030 PROB40 TEMPO 1815/1821 4000 SHRASN BKN012TCU
Voir NOTAMs / SUP AIP / TFR affectant cet aéroport [VIEW]
Fréquences de communication: [VIEW]

Pistes:

Identifiant RWYQFULongueur (ft)Largeur (ft)SurfaceLDA (ft)
12118°590298ASPH5902
30298°590298ASPH5902

Coordonnées de l'aéroport

Adresse: All Faeroe Islands Faroe Islands

Vue satellite de EKVG